Time;durP1;ratioP1;P1;durP2;ratioP2;P2;SDS_P1;SDS_P2;PMS_P1;PMS_P2;Temp;Humidity;BMP_temperature;BMP_pressure;BME280_temperature;BME280_humidity;BME280_pressure;Samples;Min_cycle;Max_cycle;Signal;HPM_P1;HPM_P2
2024/02/03 00:01:03;;;;;;;44.45;5.85;;;;;;;;;;6143108;23;20463;-53
2024/02/03 00:03:50;;;;;;;40.10;5.35;;;;;;;;;;6143104;23;20029;-55
2024/02/03 00:06:44;;;;;;;39.58;5.10;;;;;;;;;;6143481;23;20028;-59
2024/02/03 00:09:38;;;;;;;36.88;4.43;;;;;;;;;;6142458;23;20026;-60
2024/02/03 00:12:31;;;;;;;39.65;5.38;;;;;;;;;;6143111;23;20331;-59
2024/02/03 00:15:27;;;;;;;42.25;5.63;;;;;;;;;;6143579;23;20025;-59
2024/02/03 00:18:02;;;;;;;50.15;6.47;;;;;;;;;;6144006;23;20022;-65
2024/02/03 00:20:36;;;;;;;40.50;4.80;;;;;;;;;;6144489;23;20029;-55
2024/02/03 00:23:23;;;;;;;40.65;5.50;;;;;;;;;;6143687;23;20471;-56
2024/02/03 00:26:17;;;;;;;35.30;6.32;;;;;;;;;;6145389;23;20018;-52
2024/02/03 00:29:12;;;;;;;36.67;4.45;;;;;;;;;;6145894;23;20396;-52
2024/02/03 00:31:58;;;;;;;26.10;3.80;;;;;;;;;;6144485;23;20025;-55
2024/02/03 00:34:52;;;;;;;33.92;5.03;;;;;;;;;;6144589;23;20025;-61
2024/02/03 00:37:39;;;;;;;33.05;5.30;;;;;;;;;;6143946;23;20029;-62
2024/02/03 00:40:33;;;;;;;38.95;5.70;;;;;;;;;;6144116;23;20022;-62
2024/02/03 00:43:20;;;;;;;34.47;4.40;;;;;;;;;;6143436;23;20021;-62
2024/02/03 00:46:14;;;;;;;30.88;4.25;;;;;;;;;;6142973;23;20085;-64
2024/02/03 00:49:01;;;;;;;36.35;5.20;;;;;;;;;;6141888;23;20030;-59
2024/02/03 00:51:55;;;;;;;48.72;4.85;;;;;;;;;;6141743;23;20024;-59
2024/02/03 00:54:43;;;;;;;35.00;5.20;;;;;;;;;;6143878;23;20438;-59
2024/02/03 00:57:37;;;;;;;32.72;4.07;;;;;;;;;;6142723;23;20025;-60
2024/02/03 01:00:27;;;;;;;28.40;3.95;;;;;;;;;;6143861;23;20022;-60
2024/02/03 01:03:18;;;;;;;35.03;4.18;;;;;;;;;;6145785;23;20088;-60
2024/02/03 01:06:05;;;;;;;24.70;3.70;;;;;;;;;;6145236;23;20476;-59
2024/02/03 01:08:59;;;;;;;36.17;5.20;;;;;;;;;;6144518;23;20036;-59
2024/02/03 01:11:59;;;;;;;32.55;4.13;;;;;;;;;;6144174;23;20064;-60
2024/02/03 01:14:47;;;;;;;25.77;4.20;;;;;;;;;;6145271;23;20661;-58
2024/02/03 01:17:41;;;;;;;29.35;4.72;;;;;;;;;;6144902;23;20036;-60
2024/02/03 01:20:28;;;;;;;25.52;3.33;;;;;;;;;;6145779;23;20345;-59
2024/02/03 01:23:22;;;;;;;30.60;4.65;;;;;;;;;;6146582;23;20463;-60
2024/02/03 01:26:09;;;;;;;28.08;4.57;;;;;;;;;;6147600;23;20482;-60
2024/02/03 01:29:03;;;;;;;22.77;4.97;;;;;;;;;;6146569;23;20029;-60
2024/02/03 01:31:52;;;;;;;33.63;4.53;;;;;;;;;;6146975;23;20068;-61
2024/02/03 01:34:46;;;;;;;28.58;3.70;;;;;;;;;;6146344;23;20029;-62
2024/02/03 01:37:33;;;;;;;34.00;4.28;;;;;;;;;;6143250;23;20026;-62
2024/02/03 01:40:29;;;;;;;25.08;3.80;;;;;;;;;;6143998;23;20072;-61
2024/02/03 01:43:23;;;;;;;22.25;3.25;;;;;;;;;;6145585;23;20029;-64
2024/02/03 01:46:10;;;;;;;27.98;3.72;;;;;;;;;;6144089;23;20022;-60
2024/02/03 01:49:04;;;;;;;30.00;3.75;;;;;;;;;;6144601;23;20032;-60
2024/02/03 01:51:51;;;;;;;28.73;3.75;;;;;;;;;;6144421;23;20482;-60
2024/02/03 01:54:45;;;;;;;27.50;3.50;;;;;;;;;;6145346;23;20025;-59
2024/02/03 01:57:33;;;;;;;28.95;3.72;;;;;;;;;;6145382;23;20073;-59
2024/02/03 02:00:27;;;;;;;20.17;3.58;;;;;;;;;;6144047;23;20411;-62
2024/02/03 02:03:14;;;;;;;34.67;4.60;;;;;;;;;;6145266;23;20741;-62
2024/02/03 02:06:09;;;;;;;27.90;3.80;;;;;;;;;;6146264;23;20537;-62
2024/02/03 02:08:57;;;;;;;26.95;5.18;;;;;;;;;;6145629;23;20462;-61
2024/02/03 02:11:58;;;;;;;24.48;4.03;;;;;;;;;;6147016;23;20060;-55
2024/02/03 02:14:45;;;;;;;35.63;4.07;;;;;;;;;;6145891;23;20096;-62
2024/02/03 02:17:39;;;;;;;34.08;4.50;;;;;;;;;;6146619;23;20025;-62
2024/02/03 02:20:27;;;;;;;29.60;3.95;;;;;;;;;;6147703;23;20029;-62
2024/02/03 02:23:20;;;;;;;27.15;4.28;;;;;;;;;;6145973;23;20025;-62
2024/02/03 02:26:07;;;;;;;31.77;3.72;;;;;;;;;;6145495;23;20029;-62
2024/02/03 02:29:01;;;;;;;17.80;3.47;;;;;;;;;;6146336;23;20025;-62
2024/02/03 02:31:48;;;;;;;27.52;3.80;;;;;;;;;;6145933;23;20666;-62
2024/02/03 02:34:42;;;;;;;27.02;3.90;;;;;;;;;;6145669;23;20025;-62
2024/02/03 02:37:36;;;;;;;29.45;4.03;;;;;;;;;;6143260;23;20379;-62
2024/02/03 02:40:30;;;;;;;33.55;5.07;;;;;;;;;;6146447;23;20037;-51
2024/02/03 02:43:17;;;;;;;32.03;4.47;;;;;;;;;;6145205;23;20076;-54
2024/02/03 02:46:11;;;;;;;21.83;4.30;;;;;;;;;;6145879;23;20025;-53
2024/02/03 02:48:58;;;;;;;28.85;3.10;;;;;;;;;;6144951;23;20025;-54
2024/02/03 02:51:52;;;;;;;23.63;3.83;;;;;;;;;;6145437;23;20029;-53
2024/02/03 02:54:46;;;;;;;27.13;4.00;;;;;;;;;;6143695;23;20037;-50
2024/02/03 02:57:40;;;;;;;35.80;4.80;;;;;;;;;;6144950;23;20037;-65
2024/02/03 03:00:27;;;;;;;38.08;5.85;;;;;;;;;;6144673;23;20025;-64
2024/02/03 03:03:21;;;;;;;41.88;5.40;;;;;;;;;;6144490;23;20290;-64
2024/02/03 03:06:08;;;;;;;35.55;4.88;;;;;;;;;;6144498;23;20025;-65
2024/02/03 03:09:02;;;;;;;45.05;6.40;;;;;;;;;;6144245;23;20021;-62
2024/02/03 03:11:55;;;;;;;40.22;6.22;;;;;;;;;;6143106;23;20577;-50
2024/02/03 03:14:56;;;;;;;38.17;6.63;;;;;;;;;;6142174;23;20375;-49
2024/02/03 03:17:43;;;;;;;43.55;6.40;;;;;;;;;;6144088;23;20337;-53
2024/02/03 03:20:40;;;;;;;50.25;7.55;;;;;;;;;;6142348;23;20044;-54
2024/02/03 03:23:24;;;;;;;48.17;5.85;;;;;;;;;;6142394;23;20022;-52
2024/02/03 03:26:18;;;;;;;34.78;4.90;;;;;;;;;;6144638;23;20032;-66
2024/02/03 03:29:05;;;;;;;49.42;7.22;;;;;;;;;;6142699;23;20025;-65
2024/02/03 03:31:59;;;;;;;46.42;6.22;;;;;;;;;;6142898;23;20032;-65
2024/02/03 03:34:48;;;;;;;31.60;5.03;;;;;;;;;;6143056;23;20029;-64
2024/02/03 03:37:40;;;;;;;46.65;5.68;;;;;;;;;;6142384;23;20025;-62
2024/02/03 03:40:27;;;;;;;43.67;5.95;;;;;;;;;;6143053;23;20028;-59
2024/02/03 03:43:21;;;;;;;43.53;6.10;;;;;;;;;;6143172;23;20021;-62
2024/02/03 03:46:08;;;;;;;42.28;5.72;;;;;;;;;;6143244;23;20045;-60
2024/02/03 03:49:02;;;;;;;40.10;6.05;;;;;;;;;;6142549;23;20025;-60
2024/02/03 03:51:49;;;;;;;40.28;5.53;;;;;;;;;;6142248;23;20021;-60
2024/02/03 03:54:43;;;;;;;36.00;5.25;;;;;;;;;;6143029;23;20021;-61
2024/02/03 03:57:30;;;;;;;43.45;6.07;;;;;;;;;;6143288;23;20112;-62
2024/02/03 04:00:24;;;;;;;57.92;6.75;;;;;;;;;;6143492;23;20032;-61
2024/02/03 04:03:18;;;;;;;45.42;5.55;;;;;;;;;;6144256;23;20025;-62
2024/02/03 04:06:12;;;;;;;36.83;5.03;;;;;;;;;;6145540;23;20029;-64
2024/02/03 04:09:06;;;;;;;40.17;7.07;;;;;;;;;;6144036;23;20100;-52
2024/02/03 04:11:59;;;;;;;47.67;6.97;;;;;;;;;;6145306;23;20499;-52
2024/02/03 04:14:53;;;;;;;51.75;7.22;;;;;;;;;;6144751;23;20021;-54
2024/02/03 04:17:40;;;;;;;44.20;7.57;;;;;;;;;;6144598;23;20100;-53
2024/02/03 04:20:34;;;;;;;44.17;5.90;;;;;;;;;;6143595;23;20029;-53
2024/02/03 04:23:21;;;;;;;45.75;7.22;;;;;;;;;;6143787;23;20085;-54
2024/02/03 04:26:15;;;;;;;46.88;6.90;;;;;;;;;;6144545;23;20029;-49
2024/02/03 04:29:02;;;;;;;65.15;7.95;;;;;;;;;;6142685;23;20017;-52
2024/02/03 04:31:56;;;;;;;81.63;8.48;;;;;;;;;;6143316;23;20678;-52
2024/02/03 04:34:44;;;;;;;60.17;8.32;;;;;;;;;;6142845;23;20017;-61
2024/02/03 04:37:38;;;;;;;42.70;5.82;;;;;;;;;;6144274;23;20033;-65
2024/02/03 04:40:32;;;;;;;64.03;8.68;;;;;;;;;;6145198;23;20029;-65
2024/02/03 04:43:26;;;;;;;57.50;7.93;;;;;;;;;;6143053;23;20029;-65
2024/02/03 04:46:13;;;;;;;73.20;9.18;;;;;;;;;;6144263;23;20021;-65
2024/02/03 04:49:07;;;;;;;61.40;10.00;;;;;;;;;;6144761;23;20029;-64
2024/02/03 04:51:54;;;;;;;67.97;9.07;;;;;;;;;;6143642;23;20048;-52
2024/02/03 04:54:48;;;;;;;64.43;8.10;;;;;;;;;;6143616;23;20085;-51
2024/02/03 04:57:35;;;;;;;65.28;8.88;;;;;;;;;;6144740;23;20033;-49
2024/02/03 05:00:29;;;;;;;74.35;9.02;;;;;;;;;;6146352;23;20534;-54
2024/02/03 05:03:16;;;;;;;63.33;9.77;;;;;;;;;;6147459;23;20026;-52
2024/02/03 05:06:11;;;;;;;70.47;7.70;;;;;;;;;;6145091;23;20510;-54
2024/02/03 05:08:58;;;;;;;66.65;9.13;;;;;;;;;;6148064;23;20088;-56
2024/02/03 05:11:58;;;;;;;68.75;8.98;;;;;;;;;;6146215;23;20030;-54
2024/02/03 05:14:51;;;;;;;67.40;8.57;;;;;;;;;;6145753;23;20456;-53
2024/02/03 05:17:45;;;;;;;73.80;10.48;;;;;;;;;;6145061;23;20025;-52
2024/02/03 05:20:32;;;;;;;70.25;9.27;;;;;;;;;;6144497;23;20759;-53
2024/02/03 05:23:26;;;;;;;56.03;7.03;;;;;;;;;;6143454;23;20469;-55
2024/02/03 05:26:13;;;;;;;72.80;9.10;;;;;;;;;;6143697;23;20022;-54
2024/02/03 05:29:07;;;;;;;45.58;6.93;;;;;;;;;;6145378;23;20080;-54
2024/02/03 05:31:54;;;;;;;51.85;7.43;;;;;;;;;;6143115;23;20404;-62
2024/02/03 05:34:48;;;;;;;61.55;9.57;;;;;;;;;;6144508;23;20021;-54
2024/02/03 05:37:38;;;;;;;61.38;8.60;;;;;;;;;;6142636;23;20464;-54
2024/02/03 05:40:32;;;;;;;77.32;9.82;;;;;;;;;;6144833;23;20029;-54
2024/02/03 05:43:19;;;;;;;60.35;8.43;;;;;;;;;;6144993;23;20302;-55
2024/02/03 05:46:13;;;;;;;61.42;6.28;;;;;;;;;;6144745;23;20083;-51
2024/02/03 05:49:00;;;;;;;45.78;5.80;;;;;;;;;;6145177;23;20084;-62
2024/02/03 05:51:54;;;;;;;51.25;7.85;;;;;;;;;;6145046;23;20152;-61
2024/02/03 05:54:41;;;;;;;57.85;7.65;;;;;;;;;;6145787;23;20030;-62
2024/02/03 05:57:35;;;;;;;45.70;6.15;;;;;;;;;;6144882;23;20081;-61
2024/02/03 06:00:22;;;;;;;59.22;8.77;;;;;;;;;;6145711;23;20068;-60
2024/02/03 06:03:16;;;;;;;62.70;8.88;;;;;;;;;;6145469;23;20032;-60
2024/02/03 06:06:04;;;;;;;67.88;7.72;;;;;;;;;;6147270;23;20022;-59
2024/02/03 06:08:58;;;;;;;61.83;8.40;;;;;;;;;;6145115;23;20105;-59
2024/02/03 06:11:52;;;;;;;62.35;8.82;;;;;;;;;;6144866;23;20025;-58
2024/02/03 06:14:46;;;;;;;64.63;8.18;;;;;;;;;;6145635;23;20086;-59
2024/02/03 06:17:33;;;;;;;73.43;10.15;;;;;;;;;;6144853;23;20033;-59
2024/02/03 06:20:27;;;;;;;68.68;9.18;;;;;;;;;;6144529;23;20026;-59
2024/02/03 06:23:14;;;;;;;63.15;7.00;;;;;;;;;;6144206;23;20081;-59
2024/02/03 06:26:09;;;;;;;69.15;7.78;;;;;;;;;;6143432;23;20025;-60
2024/02/03 06:28:56;;;;;;;;;;;;;;;;;;6145357;23;20467;-61
2024/02/03 06:31:50;;;;;;;56.92;7.38;;;;;;;;;;6143495;23;20276;-64
2024/02/03 06:34:37;;;;;;;60.17;8.20;;;;;;;;;;6141391;23;20018;-63
2024/02/03 06:37:31;;;;;;;72.07;10.20;;;;;;;;;;6143825;23;20028;-63
2024/02/03 06:40:18;;;;;;;47.63;7.22;;;;;;;;;;6143207;23;20025;-64
2024/02/03 06:43:12;;;;;;;55.05;7.35;;;;;;;;;;6143736;23;20483;-64
2024/02/03 06:46:06;;;;;;;61.17;9.63;;;;;;;;;;6144316;23;20415;-64
2024/02/03 06:49:00;;;;;;;57.67;7.85;;;;;;;;;;6144223;23;20029;-64
2024/02/03 06:51:47;;;;;;;59.03;8.05;;;;;;;;;;6145422;23;20096;-63
2024/02/03 06:54:41;;;;;;;61.08;7.35;;;;;;;;;;6145278;23;20255;-54
2024/02/03 06:57:28;;;;;;;65.55;10.50;;;;;;;;;;6144647;23;20037;-61
2024/02/03 07:00:23;;;;;;;62.05;7.38;;;;;;;;;;6143467;23;20032;-62
2024/02/03 07:03:16;;;;;;;59.60;8.25;;;;;;;;;;6143174;23;20610;-61
2024/02/03 07:06:04;;;;;;;57.78;9.27;;;;;;;;;;6142903;23;20025;-62
2024/02/03 07:08:57;;;;;;;63.03;8.07;;;;;;;;;;6145017;23;20343;-62
2024/02/03 07:11:52;;;;;;;54.20;7.45;;;;;;;;;;6143636;23;20132;-61
2024/02/03 07:14:46;;;;;;;65.45;8.93;;;;;;;;;;6143893;23;20102;-59
2024/02/03 07:17:40;;;;;;;60.50;8.25;;;;;;;;;;6142175;23;20315;-59
2024/02/03 07:20:34;;;;;;;73.70;9.48;;;;;;;;;;6142358;23;20029;-59
2024/02/03 07:23:21;;;;;;;46.80;6.20;;;;;;;;;;6142245;23;20021;-61
2024/02/03 07:26:15;;;;;;;61.45;9.25;;;;;;;;;;6142772;23;20407;-64
2024/02/03 07:29:02;;;;;;;58.58;8.23;;;;;;;;;;6144542;23;20029;-65
2024/02/03 07:32:00;;;;;;;57.20;8.43;;;;;;;;;;6140604;23;20040;-65
2024/02/03 07:34:47;;;;;;;71.88;9.57;;;;;;;;;;6142746;23;20439;-65
2024/02/03 07:37:40;;;;;;;57.22;8.98;;;;;;;;;;6141790;23;20363;-65
2024/02/03 07:40:27;;;;;;;69.22;8.60;;;;;;;;;;6145197;23;20471;-64
2024/02/03 07:43:21;;;;;;;58.13;7.15;;;;;;;;;;6146603;23;20018;-52
2024/02/03 07:46:08;;;;;;;52.35;7.47;;;;;;;;;;6145509;23;20092;-52
2024/02/03 07:49:02;;;;;;;63.25;8.40;;;;;;;;;;6145341;23;20511;-52
2024/02/03 07:51:56;;;;;;;68.00;8.98;;;;;;;;;;6145300;23;20022;-51
2024/02/03 07:54:50;;;;;;;51.78;7.15;;;;;;;;;;6142917;23;20025;-60
2024/02/03 07:57:37;;;;;;;55.13;8.93;;;;;;;;;;6145264;23;20026;-55
2024/02/03 08:00:31;;;;;;;58.08;8.07;;;;;;;;;;6143538;23;20782;-52
2024/02/03 08:03:19;;;;;;;52.72;8.30;;;;;;;;;;6143351;23;20021;-51
2024/02/03 08:06:13;;;;;;;62.35;8.95;;;;;;;;;;6145102;23;20028;-47
2024/02/03 08:09:00;;;;;;;70.35;9.48;;;;;;;;;;6144899;23;20025;-47
2024/02/03 08:12:03;;;;;;;61.30;8.25;;;;;;;;;;6144139;23;20807;-60
2024/02/03 08:14:55;;;;;;;57.40;8.77;;;;;;;;;;6142956;23;20060;-62
2024/02/03 08:17:48;;;;;;;77.78;8.10;;;;;;;;;;6143757;23;20068;-59
2024/02/03 08:20:35;;;;;;;70.45;8.63;;;;;;;;;;6143499;23;20394;-59
2024/02/03 08:23:29;;;;;;;57.92;7.35;;;;;;;;;;6143536;23;20021;-47
2024/02/03 08:26:16;;;;;;;50.50;7.22;;;;;;;;;;6143466;23;20407;-52
2024/02/03 08:29:11;;;;;;;59.60;6.80;;;;;;;;;;6143893;23;20021;-50
2024/02/03 08:31:57;;;;;;;57.88;8.65;;;;;;;;;;6141590;23;20348;-51
2024/02/03 08:34:51;;;;;;;62.60;8.57;;;;;;;;;;6142463;23;20105;-52
2024/02/03 08:37:52;;;;;;;47.90;8.25;;;;;;;;;;6142921;23;20025;-51
2024/02/03 08:40:46;;;;;;;57.28;8.00;;;;;;;;;;6142894;23;20030;-60
2024/02/03 08:43:34;;;;;;;64.20;8.73;;;;;;;;;;6144628;23;20029;-59
2024/02/03 08:46:27;;;;;;;55.85;8.50;;;;;;;;;;6143876;23;20467;-60
2024/02/03 08:49:14;;;;;;;58.95;8.80;;;;;;;;;;6143340;23;20364;-54
2024/02/03 08:52:08;;;;;;;43.50;6.68;;;;;;;;;;6144468;23;20027;-59
2024/02/03 08:54:55;;;;;;;54.15;8.75;;;;;;;;;;6143325;23;20032;-59
2024/02/03 08:57:49;;;;;;;53.83;7.13;;;;;;;;;;6142855;23;20025;-59
2024/02/03 09:00:37;;;;;;;51.70;7.75;;;;;;;;;;6144593;23;20025;-60
2024/02/03 09:03:30;;;;;;;39.65;5.85;;;;;;;;;;6143895;23;20036;-59
2024/02/03 09:06:20;;;;;;;43.17;6.30;;;;;;;;;;6145181;23;20021;-59
2024/02/03 09:09:14;;;;;;;37.60;5.38;;;;;;;;;;6144189;23;20018;-53
2024/02/03 09:12:08;;;;;;;41.92;5.85;;;;;;;;;;6143031;23;20105;-53
2024/02/03 09:15:09;;;;;;;40.95;6.47;;;;;;;;;;6143727;23;20025;-48
2024/02/03 09:18:03;;;;;;;48.60;6.40;;;;;;;;;;6142655;23;20101;-61
2024/02/03 09:20:57;;;;;;;31.60;5.57;;;;;;;;;;6143793;23;20475;-59
2024/02/03 09:23:51;;;;;;;44.00;6.05;;;;;;;;;;6142991;23;20025;-60
2024/02/03 09:26:43;;;;;;;39.60;6.10;;;;;;;;;;6143453;23;20365;-59
2024/02/03 09:29:40;;;;;;;43.65;6.95;;;;;;;;;;6142561;23;20024;-59
2024/02/03 09:32:28;;;;;;;37.00;5.70;;;;;;;;;;6143929;23;20021;-61
2024/02/03 09:35:25;;;;;;;35.80;5.13;;;;;;;;;;6140844;23;20028;-63
2024/02/03 09:38:11;;;;;;;37.20;6.40;;;;;;;;;;6140572;23;20021;-55
2024/02/03 09:41:12;;;;;;;37.13;6.38;;;;;;;;;;6142868;23;20025;-62
2024/02/03 09:43:40;;;;;;;36.45;5.95;;;;;;;;;;6140949;23;20029;-63
2024/02/03 09:46:16;;;;;;;27.85;4.22;;;;;;;;;;6144237;23;20022;-61
2024/02/03 09:49:03;;;;;;;39.80;5.85;;;;;;;;;;6144183;23;20029;-62
2024/02/03 09:51:58;;;;;;;39.90;6.35;;;;;;;;;;6137176;23;20475;-62
2024/02/03 09:54:48;;;;;;;37.85;5.63;;;;;;;;;;6143395;23;20033;-58
2024/02/03 09:57:43;;;;;;;32.58;5.43;;;;;;;;;;6146082;23;20379;-59
2024/02/03 10:00:31;;;;;;;34.50;5.65;;;;;;;;;;6145633;23;20029;-60
2024/02/03 10:03:25;;;;;;;32.28;5.60;;;;;;;;;;6143104;23;20073;-60
2024/02/03 10:06:13;;;;;;;32.17;4.80;;;;;;;;;;6143437;23;20084;-59
2024/02/03 10:09:06;;;;;;;29.40;4.53;;;;;;;;;;6144246;23;20084;-60
2024/02/03 10:12:00;;;;;;;30.30;4.10;;;;;;;;;;6143113;23;20427;-60
2024/02/03 10:15:00;;;;;;;;;;;;;;;;;;6144553;23;20031;-54
2024/02/03 10:18:00;;;;;;;35.45;5.97;;;;;;;;;;6143481;23;19924;-48
2024/02/03 10:20:47;;;;;;;36.25;5.70;;;;;;;;;;6143774;23;20022;-48
2024/02/03 10:23:49;;;;;;;30.08;5.13;;;;;;;;;;6143344;23;20573;-48
2024/02/03 10:26:36;;;;;;;36.63;6.32;;;;;;;;;;6143915;23;20022;-49
2024/02/03 10:29:30;;;;;;;31.58;5.65;;;;;;;;;;6142317;23;20025;-49
2024/02/03 10:32:24;;;;;;;30.75;4.63;;;;;;;;;;6141451;23;20049;-62
2024/02/03 10:35:18;;;;;;;23.85;4.78;;;;;;;;;;6139991;23;20436;-55
2024/02/03 10:37:45;;;;;;;28.38;4.00;;;;;;;;;;6143271;23;20044;-56
2024/02/03 10:40:19;;;;;;;33.90;4.63;;;;;;;;;;6143471;23;20030;-56
2024/02/03 10:42:50;;;;;;;33.97;4.88;;;;;;;;;;6144198;23;20025;-53
2024/02/03 10:45:19;;;;;;;25.95;3.92;;;;;;;;;;6142712;23;20021;-55
2024/02/03 10:47:54;;;;;;;27.98;5.18;;;;;;;;;;6143821;23;20328;-55
2024/02/03 10:50:24;;;;;;;37.63;5.97;;;;;;;;;;6142102;23;20036;-63
2024/02/03 10:53:01;;;;;;;24.05;3.67;;;;;;;;;;6140952;23;20025;-64
2024/02/03 10:55:29;;;;;;;29.27;5.63;;;;;;;;;;6141940;23;20081;-64
2024/02/03 10:57:57;;;;;;;34.72;5.30;;;;;;;;;;6145237;23;20017;-64
2024/02/03 11:00:31;;;;;;;42.63;6.72;;;;;;;;;;6144183;23;20028;-63
2024/02/03 11:03:00;;;;;;;52.38;6.45;;;;;;;;;;6142603;23;20025;-64
2024/02/03 11:05:28;;;;;;;36.95;6.80;;;;;;;;;;6139690;23;20032;-63
2024/02/03 11:08:07;;;;;;;47.10;7.68;;;;;;;;;;6143038;23;20025;-64
2024/02/03 11:10:41;;;;;;;35.20;5.07;;;;;;;;;;6144173;23;20052;-64
2024/02/03 11:13:17;;;;;;;56.42;7.82;;;;;;;;;;6142808;23;20025;-64
2024/02/03 11:15:57;;;;;;;40.92;7.25;;;;;;;;;;6143923;23;20387;-64
2024/02/03 11:18:26;;;;;;;47.08;7.20;;;;;;;;;;6143535;23;20044;-66
2024/02/03 11:21:09;;;;;;;48.72;6.50;;;;;;;;;;6143551;23;20029;-52
2024/02/03 11:23:36;;;;;;;43.08;6.82;;;;;;;;;;6141424;23;20246;-53
2024/02/03 11:26:10;;;;;;;30.15;4.43;;;;;;;;;;6143152;23;20025;-53
2024/02/03 11:28:37;;;;;;;;;;;;;;;;;;6145337;23;20076;-50
2024/02/03 11:31:05;;;;;;;41.72;6.57;;;;;;;;;;6144222;23;19975;-54
2024/02/03 11:33:45;;;;;;;44.75;6.82;;;;;;;;;;6141823;23;20025;-50
2024/02/03 11:36:14;;;;;;;46.08;7.13;;;;;;;;;;6142826;23;20116;-61
2024/02/03 11:38:49;;;;;;;27.70;4.85;;;;;;;;;;6140741;23;20032;-60
2024/02/03 11:41:23;;;;;;;45.47;6.68;;;;;;;;;;6143756;23;20029;-62
2024/02/03 11:43:57;;;;;;;49.05;7.40;;;;;;;;;;6142164;23;20234;-62
2024/02/03 11:46:24;;;;;;;54.55;7.65;;;;;;;;;;6143735;23;20538;-62
2024/02/03 11:48:58;;;;;;;54.35;7.93;;;;;;;;;;6144371;23;20038;-62
2024/02/03 11:51:28;;;;;;;57.65;9.77;;;;;;;;;;6143118;23;20479;-62
2024/02/03 11:54:03;;;;;;;47.45;8.02;;;;;;;;;;6138070;23;20470;-62
2024/02/03 11:56:37;;;;;;;45.65;6.28;;;;;;;;;;6143856;23;20412;-64
2024/02/03 11:59:11;;;;;;;59.13;9.15;;;;;;;;;;6140331;23;20025;-64
2024/02/03 12:01:45;;;;;;;45.55;7.00;;;;;;;;;;6143026;23;20511;-63
2024/02/03 12:04:12;;;;;;;44.97;7.45;;;;;;;;;;6144039;23;20029;-64
2024/02/03 12:06:40;;;;;;;62.20;9.65;;;;;;;;;;6142397;23;20036;-64
2024/02/03 12:09:16;;;;;;;50.72;7.50;;;;;;;;;;6143437;23;20973;-64
2024/02/03 12:11:43;;;;;;;47.20;7.28;;;;;;;;;;6143357;23;20084;-64
2024/02/03 12:14:28;;;;;;;50.05;8.98;;;;;;;;;;6143202;23;20619;-61
2024/02/03 12:16:55;;;;;;;;;;;;;;;;;;6142329;23;20025;-62
2024/02/03 12:19:29;;;;;;;60.33;7.35;;;;;;;;;;6143378;23;20227;-61
2024/02/03 12:21:58;;;;;;;60.05;8.25;;;;;;;;;;6144296;23;20048;-61
2024/02/03 12:24:25;;;;;;;46.42;6.30;;;;;;;;;;6140673;23;20471;-62
2024/02/03 12:27:00;;;;;;;31.85;5.03;;;;;;;;;;6144134;23;20060;-51
2024/02/03 12:29:28;;;;;;;40.83;6.65;;;;;;;;;;6142402;23;20029;-49
2024/02/03 12:32:02;;;;;;;30.55;4.72;;;;;;;;;;6143531;23;20068;-51
2024/02/03 12:34:29;;;;;;;27.33;5.15;;;;;;;;;;6144481;23;20025;-50
2024/02/03 12:36:57;;;;;;;45.88;6.43;;;;;;;;;;6141298;23;20101;-50
2024/02/03 12:39:31;;;;;;;42.38;6.75;;;;;;;;;;6143558;23;20030;-53
2024/02/03 12:42:00;;;;;;;37.47;6.30;;;;;;;;;;6144364;23;20725;-47
2024/02/03 12:44:34;;;;;;;41.08;6.05;;;;;;;;;;6142769;23;20029;-49
2024/02/03 12:47:01;;;;;;;29.70;3.75;;;;;;;;;;6144380;23;20101;-46
2024/02/03 12:49:28;;;;;;;35.38;5.63;;;;;;;;;;6143781;23;20092;-48
2024/02/03 12:52:04;;;;;;;38.00;5.28;;;;;;;;;;6143464;23;20080;-60
2024/02/03 12:54:31;;;;;;;35.03;5.40;;;;;;;;;;6141331;23;20090;-52
2024/02/03 12:57:05;;;;;;;19.08;3.72;;;;;;;;;;6143239;23;20025;-53
2024/02/03 12:59:52;;;;;;;30.40;4.95;;;;;;;;;;6143080;23;20056;-50
2024/02/03 13:02:46;;;;;;;28.10;4.68;;;;;;;;;;6141087;23;20033;-54
2024/02/03 13:05:33;;;;;;;26.17;4.90;;;;;;;;;;6141538;23;20082;-54
2024/02/03 13:08:27;;;;;;;36.47;7.03;;;;;;;;;;6143773;23;20084;-52
2024/02/03 13:11:15;;;;;;;36.00;5.63;;;;;;;;;;6145571;23;20506;-66
2024/02/03 13:14:15;;;;;;;27.13;4.43;;;;;;;;;;6143520;23;20348;-66
2024/02/03 13:17:02;;;;;;;31.08;5.90;;;;;;;;;;6146028;23;20080;-65
2024/02/03 13:19:57;;;;;;;24.55;4.65;;;;;;;;;;6145693;23;20026;-66
2024/02/03 13:22:43;;;;;;;28.20;5.60;;;;;;;;;;6144764;23;20463;-61
2024/02/03 13:25:37;;;;;;;24.60;4.05;;;;;;;;;;6143589;23;20037;-61
2024/02/03 13:28:24;;;;;;;28.00;4.10;;;;;;;;;;6145685;23;20088;-61
2024/02/03 13:31:23;;;;;;;30.83;5.70;;;;;;;;;;6145027;23;20025;-61
2024/02/03 13:34:05;;;;;;;32.70;5.30;;;;;;;;;;6140940;23;20061;-61
2024/02/03 13:36:46;;;;;;;29.98;5.63;;;;;;;;;;6140303;23;20761;-61
2024/02/03 13:39:13;;;;;;;;;;;;;;;;;;6141288;23;20057;-60
2024/02/03 13:42:07;;;;;;;39.45;5.93;;;;;;;;;;6143863;23;19920;-65
2024/02/03 13:44:54;;;;;;;33.47;6.15;;;;;;;;;;6143695;23;20383;-65
2024/02/03 13:47:49;;;;;;;31.92;5.38;;;;;;;;;;6140950;23;20480;-64
2024/02/03 13:50:35;;;;;;;42.85;5.30;;;;;;;;;;6141160;23;20025;-66
2024/02/03 13:53:29;;;;;;;41.25;6.00;;;;;;;;;;6144321;23;20017;-65
2024/02/03 13:56:17;;;;;;;30.55;5.15;;;;;;;;;;6143855;23;20494;-59
2024/02/03 13:59:10;;;;;;;26.60;5.00;;;;;;;;;;6142144;23;20446;-53
2024/02/03 14:02:00;;;;;;;27.85;5.40;;;;;;;;;;6144146;23;20084;-61
2024/02/03 14:04:51;;;;;;;32.65;5.47;;;;;;;;;;6144048;23;20096;-61
2024/02/03 14:07:38;;;;;;;37.70;6.25;;;;;;;;;;6142142;23;20097;-62
2024/02/03 14:10:35;;;;;;;26.73;4.80;;;;;;;;;;6143082;23;20029;-61
2024/02/03 14:13:29;;;;;;;28.27;5.55;;;;;;;;;;6143491;23;20029;-61
2024/02/03 14:16:30;;;;;;;33.70;4.40;;;;;;;;;;6143954;23;20407;-59
2024/02/03 14:19:17;;;;;;;27.77;4.22;;;;;;;;;;6144346;23;20785;-66
2024/02/03 14:22:13;;;;;;;24.70;4.35;;;;;;;;;;6144135;23;20045;-66
2024/02/03 14:24:58;;;;;;;18.25;3.85;;;;;;;;;;6143233;23;20022;-66
2024/02/03 14:27:52;;;;;;;24.00;3.65;;;;;;;;;;6142585;23;20486;-66
2024/02/03 14:30:39;;;;;;;27.27;5.60;;;;;;;;;;6143697;23;20021;-66
2024/02/03 14:33:33;;;;;;;31.00;4.35;;;;;;;;;;6143364;23;20764;-60
2024/02/03 14:36:21;;;;;;;24.23;3.88;;;;;;;;;;6140435;23;20487;-65
2024/02/03 14:39:18;;;;;;;24.75;4.38;;;;;;;;;;6144590;23;20482;-66
2024/02/03 14:42:01;;;;;;;23.60;3.72;;;;;;;;;;6139875;23;20082;-67
2024/02/03 14:44:55;;;;;;;28.98;4.88;;;;;;;;;;6140781;23;20030;-65
2024/02/03 14:47:42;;;;;;;21.50;4.10;;;;;;;;;;6139978;23;20060;-66
2024/02/03 14:50:36;;;;;;;22.17;3.85;;;;;;;;;;6139010;23;20021;-66
2024/02/03 14:53:24;;;;;;;18.45;3.67;;;;;;;;;;6139155;23;20472;-59
2024/02/03 14:56:17;;;;;;;21.85;4.05;;;;;;;;;;6141297;23;20522;-52
2024/02/03 14:59:04;;;;;;;19.67;3.38;;;;;;;;;;6142781;23;20025;-50
2024/02/03 15:02:01;;;;;;;30.13;5.00;;;;;;;;;;6142242;23;19916;-51
2024/02/03 15:04:45;;;;;;;22.58;4.13;;;;;;;;;;6138917;23;20033;-52
2024/02/03 15:07:39;;;;;;;14.70;3.10;;;;;;;;;;6141130;23;20029;-53
2024/02/03 15:10:26;;;;;;;28.38;3.65;;;;;;;;;;6140711;23;20548;-63
2024/02/03 15:13:27;;;;;;;25.25;3.80;;;;;;;;;;6139995;23;20026;-50
2024/02/03 15:16:21;;;;;;;20.23;4.15;;;;;;;;;;6140958;23;20026;-50
2024/02/03 15:19:14;;;;;;;31.95;4.93;;;;;;;;;;6140274;23;20032;-48
2024/02/03 15:22:08;;;;;;;20.35;3.65;;;;;;;;;;6139568;23;20029;-52
2024/02/03 15:25:03;;;;;;;20.58;3.22;;;;;;;;;;6139816;23;20084;-51
2024/02/03 15:27:50;;;;;;;27.50;3.85;;;;;;;;;;6139713;23;20033;-51
2024/02/03 15:30:44;;;;;;;32.25;4.22;;;;;;;;;;6138504;23;20026;-54
2024/02/03 15:33:32;;;;;;;21.15;4.45;;;;;;;;;;6140312;23;20151;-61
2024/02/03 15:36:25;;;;;;;20.30;3.72;;;;;;;;;;6141078;23;20848;-62
2024/02/03 15:39:13;;;;;;;30.55;4.13;;;;;;;;;;6140269;23;20546;-61
2024/02/03 15:42:07;;;;;;;34.97;5.00;;;;;;;;;;6140568;23;20108;-62
2024/02/03 15:44:54;;;;;;;33.00;4.80;;;;;;;;;;6140086;23;20116;-61
2024/02/03 15:47:47;;;;;;;30.25;4.60;;;;;;;;;;6141252;23;20022;-65
2024/02/03 15:50:34;;;;;;;41.38;5.25;;;;;;;;;;6140660;23;20028;-66
2024/02/03 15:53:28;;;;;;;26.40;3.45;;;;;;;;;;6138259;23;20029;-65
2024/02/03 15:56:15;;;;;;;31.85;4.80;;;;;;;;;;6142409;23;20029;-66
2024/02/03 15:59:12;;;;;;;24.58;4.03;;;;;;;;;;6142699;23;20021;-65
2024/02/03 16:02:03;;;;;;;34.03;5.22;;;;;;;;;;6140312;23;20017;-65
2024/02/03 16:04:50;;;;;;;28.35;4.70;;;;;;;;;;6140325;23;20082;-63
2024/02/03 16:07:44;;;;;;;24.98;3.33;;;;;;;;;;6142028;23;20545;-59
2024/02/03 16:10:31;;;;;;;27.23;4.03;;;;;;;;;;6140654;23;20025;-59
2024/02/03 16:13:32;;;;;;;33.78;4.55;;;;;;;;;;6141654;23;20604;-59
2024/02/03 16:16:19;;;;;;;30.38;3.78;;;;;;;;;;6139679;23;20032;-59
2024/02/03 16:19:13;;;;;;;34.88;5.35;;;;;;;;;;6141079;23;20022;-59
2024/02/03 16:22:08;;;;;;;31.88;4.45;;;;;;;;;;6139734;23;20029;-60
2024/02/03 16:24:55;;;;;;;25.27;3.70;;;;;;;;;;6139299;23;20493;-66
2024/02/03 16:27:50;;;;;;;27.90;3.70;;;;;;;;;;6139358;23;20486;-66
2024/02/03 16:30:37;;;;;;;37.75;4.22;;;;;;;;;;6139944;23;20096;-66
2024/02/03 16:33:33;;;;;;;32.38;5.07;;;;;;;;;;6139572;23;20021;-66